sensor_id;sensor_type;location;lat;lon;timestamp;P1;durP1;ratioP1;P2;durP2;ratioP2
72483;SDS011;74199;52.014;5.430;2024-01-27T00:00:26;8.20;;;3.85;;
72483;SDS011;74199;52.014;5.430;2024-01-27T00:02:53;9.75;;;3.40;;
72483;SDS011;74199;52.014;5.430;2024-01-27T00:05:20;9.70;;;3.50;;
72483;SDS011;74199;52.014;5.430;2024-01-27T00:07:47;7.88;;;3.17;;
72483;SDS011;74199;52.014;5.430;2024-01-27T00:10:14;12.50;;;3.58;;
72483;SDS011;74199;52.014;5.430;2024-01-27T00:12:42;8.55;;;3.47;;
72483;SDS011;74199;52.014;5.430;2024-01-27T00:15:08;9.25;;;3.22;;
72483;SDS011;74199;52.014;5.430;2024-01-27T00:17:36;6.82;;;2.63;;
72483;SDS011;74199;52.014;5.430;2024-01-27T00:20:03;8.88;;;3.22;;
72483;SDS011;74199;52.014;5.430;2024-01-27T00:22:30;7.95;;;3.63;;
72483;SDS011;74199;52.014;5.430;2024-01-27T00:24:57;9.35;;;3.65;;
72483;SDS011;74199;52.014;5.430;2024-01-27T00:27:24;9.82;;;3.42;;
72483;SDS011;74199;52.014;5.430;2024-01-27T00:29:51;6.70;;;3.38;;
72483;SDS011;74199;52.014;5.430;2024-01-27T00:32:18;7.65;;;3.25;;
72483;SDS011;74199;52.014;5.430;2024-01-27T00:34:45;8.68;;;3.47;;
72483;SDS011;74199;52.014;5.430;2024-01-27T00:37:12;6.95;;;2.85;;
72483;SDS011;74199;52.014;5.430;2024-01-27T00:39:39;6.97;;;2.90;;
72483;SDS011;74199;52.014;5.430;2024-01-27T00:42:06;7.25;;;3.15;;
72483;SDS011;74199;52.014;5.430;2024-01-27T00:44:33;10.27;;;3.28;;
72483;SDS011;74199;52.014;5.430;2024-01-27T00:47:01;9.68;;;3.03;;
72483;SDS011;74199;52.014;5.430;2024-01-27T00:49:28;8.10;;;3.13;;
72483;SDS011;74199;52.014;5.430;2024-01-27T00:51:56;9.60;;;2.90;;
72483;SDS011;74199;52.014;5.430;2024-01-27T00:54:22;8.43;;;2.90;;
72483;SDS011;74199;52.014;5.430;2024-01-27T00:56:52;9.88;;;3.50;;
72483;SDS011;74199;52.014;5.430;2024-01-27T00:59:19;9.98;;;3.35;;
72483;SDS011;74199;52.014;5.430;2024-01-27T01:01:46;8.30;;;3.60;;
72483;SDS011;74199;52.014;5.430;2024-01-27T01:04:13;9.48;;;3.15;;
72483;SDS011;74199;52.014;5.430;2024-01-27T01:06:40;6.72;;;2.60;;
72483;SDS011;74199;52.014;5.430;2024-01-27T01:09:07;7.13;;;2.58;;
72483;SDS011;74199;52.014;5.430;2024-01-27T01:11:35;9.20;;;3.13;;
72483;SDS011;74199;52.014;5.430;2024-01-27T01:14:05;9.10;;;2.92;;
72483;SDS011;74199;52.014;5.430;2024-01-27T01:16:32;10.30;;;3.10;;
72483;SDS011;74199;52.014;5.430;2024-01-27T01:18:59;8.98;;;2.67;;
72483;SDS011;74199;52.014;5.430;2024-01-27T01:21:26;8.77;;;3.25;;
72483;SDS011;74199;52.014;5.430;2024-01-27T01:23:54;6.30;;;2.58;;
72483;SDS011;74199;52.014;5.430;2024-01-27T01:26:21;8.02;;;2.88;;
72483;SDS011;74199;52.014;5.430;2024-01-27T01:28:48;8.07;;;2.60;;
72483;SDS011;74199;52.014;5.430;2024-01-27T01:31:15;6.75;;;2.88;;
72483;SDS011;74199;52.014;5.430;2024-01-27T01:33:42;6.82;;;2.50;;
72483;SDS011;74199;52.014;5.430;2024-01-27T01:36:10;7.97;;;3.05;;
72483;SDS011;74199;52.014;5.430;2024-01-27T01:38:37;7.97;;;2.78;;
72483;SDS011;74199;52.014;5.430;2024-01-27T01:41:04;12.18;;;3.05;;
72483;SDS011;74199;52.014;5.430;2024-01-27T01:43:31;7.95;;;2.58;;
72483;SDS011;74199;52.014;5.430;2024-01-27T01:45:58;7.85;;;2.50;;
72483;SDS011;74199;52.014;5.430;2024-01-27T01:48:25;6.63;;;2.40;;
72483;SDS011;74199;52.014;5.430;2024-01-27T01:50:52;7.93;;;2.40;;
72483;SDS011;74199;52.014;5.430;2024-01-27T01:53:19;8.85;;;2.60;;
72483;SDS011;74199;52.014;5.430;2024-01-27T01:55:47;6.05;;;2.33;;
72483;SDS011;74199;52.014;5.430;2024-01-27T01:58:16;6.22;;;2.30;;
72483;SDS011;74199;52.014;5.430;2024-01-27T02:00:43;11.25;;;2.67;;
72483;SDS011;74199;52.014;5.430;2024-01-27T02:03:11;7.85;;;2.50;;
72483;SDS011;74199;52.014;5.430;2024-01-27T02:05:39;6.03;;;2.65;;
72483;SDS011;74199;52.014;5.430;2024-01-27T02:08:06;7.45;;;2.40;;
72483;SDS011;74199;52.014;5.430;2024-01-27T02:10:35;7.90;;;2.50;;
72483;SDS011;74199;52.014;5.430;2024-01-27T02:13:20;6.38;;;2.30;;
72483;SDS011;74199;52.014;5.430;2024-01-27T02:15:48;8.15;;;2.30;;
72483;SDS011;74199;52.014;5.430;2024-01-27T02:18:16;8.55;;;2.38;;
72483;SDS011;74199;52.014;5.430;2024-01-27T02:20:43;6.28;;;2.50;;
72483;SDS011;74199;52.014;5.430;2024-01-27T02:23:11;9.55;;;2.45;;
72483;SDS011;74199;52.014;5.430;2024-01-27T02:25:37;7.75;;;2.30;;
72483;SDS011;74199;52.014;5.430;2024-01-27T02:28:05;6.07;;;2.25;;
72483;SDS011;74199;52.014;5.430;2024-01-27T02:30:32;9.00;;;2.50;;
72483;SDS011;74199;52.014;5.430;2024-01-27T02:32:59;6.25;;;2.35;;
72483;SDS011;74199;52.014;5.430;2024-01-27T02:35:26;6.20;;;2.58;;
72483;SDS011;74199;52.014;5.430;2024-01-27T02:37:53;6.30;;;2.08;;
72483;SDS011;74199;52.014;5.430;2024-01-27T02:40:20;9.13;;;2.60;;
72483;SDS011;74199;52.014;5.430;2024-01-27T02:42:47;5.78;;;2.30;;
72483;SDS011;74199;52.014;5.430;2024-01-27T02:45:13;6.70;;;2.28;;
72483;SDS011;74199;52.014;5.430;2024-01-27T02:47:41;6.13;;;2.25;;
72483;SDS011;74199;52.014;5.430;2024-01-27T02:50:08;10.25;;;2.83;;
72483;SDS011;74199;52.014;5.430;2024-01-27T02:52:35;5.15;;;2.00;;
72483;SDS011;74199;52.014;5.430;2024-01-27T02:55:02;5.65;;;2.03;;
72483;SDS011;74199;52.014;5.430;2024-01-27T02:57:30;5.45;;;1.98;;
72483;SDS011;74199;52.014;5.430;2024-01-27T02:59:57;8.13;;;2.38;;
72483;SDS011;74199;52.014;5.430;2024-01-27T03:02:24;9.95;;;2.08;;
72483;SDS011;74199;52.014;5.430;2024-01-27T03:04:51;5.03;;;2.35;;
72483;SDS011;74199;52.014;5.430;2024-01-27T03:07:18;7.95;;;2.63;;
72483;SDS011;74199;52.014;5.430;2024-01-27T03:09:45;5.60;;;1.90;;
72483;SDS011;74199;52.014;5.430;2024-01-27T03:12:12;5.15;;;1.90;;
72483;SDS011;74199;52.014;5.430;2024-01-27T03:14:39;6.07;;;2.10;;
72483;SDS011;74199;52.014;5.430;2024-01-27T03:17:05;5.45;;;2.30;;
72483;SDS011;74199;52.014;5.430;2024-01-27T03:19:33;5.88;;;2.30;;
72483;SDS011;74199;52.014;5.430;2024-01-27T03:22:00;8.55;;;2.38;;
72483;SDS011;74199;52.014;5.430;2024-01-27T03:24:27;6.68;;;2.28;;
72483;SDS011;74199;52.014;5.430;2024-01-27T03:26:54;6.30;;;2.40;;
72483;SDS011;74199;52.014;5.430;2024-01-27T03:29:21;6.05;;;2.30;;
72483;SDS011;74199;52.014;5.430;2024-01-27T03:31:48;6.72;;;2.22;;
72483;SDS011;74199;52.014;5.430;2024-01-27T03:34:15;6.75;;;2.13;;
72483;SDS011;74199;52.014;5.430;2024-01-27T03:36:47;6.65;;;2.15;;
72483;SDS011;74199;52.014;5.430;2024-01-27T03:39:14;6.95;;;2.38;;
72483;SDS011;74199;52.014;5.430;2024-01-27T03:41:41;9.73;;;2.05;;
72483;SDS011;74199;52.014;5.430;2024-01-27T03:44:08;7.72;;;2.55;;
72483;SDS011;74199;52.014;5.430;2024-01-27T03:46:35;10.00;;;2.50;;
72483;SDS011;74199;52.014;5.430;2024-01-27T03:49:05;7.53;;;2.10;;
72483;SDS011;74199;52.014;5.430;2024-01-27T03:51:32;5.38;;;2.10;;
72483;SDS011;74199;52.014;5.430;2024-01-27T03:53:59;5.25;;;1.95;;
72483;SDS011;74199;52.014;5.430;2024-01-27T03:56:26;6.82;;;2.22;;
72483;SDS011;74199;52.014;5.430;2024-01-27T03:58:53;6.05;;;2.58;;
72483;SDS011;74199;52.014;5.430;2024-01-27T04:01:20;8.43;;;2.25;;
72483;SDS011;74199;52.014;5.430;2024-01-27T04:03:47;5.43;;;2.15;;
72483;SDS011;74199;52.014;5.430;2024-01-27T04:06:14;5.68;;;2.00;;
72483;SDS011;74199;52.014;5.430;2024-01-27T04:08:41;5.85;;;2.13;;
72483;SDS011;74199;52.014;5.430;2024-01-27T04:11:20;5.47;;;2.15;;
72483;SDS011;74199;52.014;5.430;2024-01-27T04:13:49;9.13;;;2.35;;
72483;SDS011;74199;52.014;5.430;2024-01-27T04:16:19;6.55;;;2.13;;
72483;SDS011;74199;52.014;5.430;2024-01-27T04:18:46;6.72;;;2.30;;
72483;SDS011;74199;52.014;5.430;2024-01-27T04:21:13;8.55;;;2.38;;
72483;SDS011;74199;52.014;5.430;2024-01-27T04:23:40;7.20;;;2.08;;
72483;SDS011;74199;52.014;5.430;2024-01-27T04:26:07;7.10;;;2.17;;
72483;SDS011;74199;52.014;5.430;2024-01-27T04:28:35;6.88;;;2.58;;
72483;SDS011;74199;52.014;5.430;2024-01-27T04:31:03;7.60;;;2.17;;
72483;SDS011;74199;52.014;5.430;2024-01-27T04:33:30;8.93;;;2.50;;
72483;SDS011;74199;52.014;5.430;2024-01-27T04:35:57;7.57;;;2.40;;
72483;SDS011;74199;52.014;5.430;2024-01-27T04:38:24;7.50;;;2.22;;
72483;SDS011;74199;52.014;5.430;2024-01-27T04:40:51;6.38;;;2.28;;
72483;SDS011;74199;52.014;5.430;2024-01-27T04:43:18;7.70;;;2.47;;
72483;SDS011;74199;52.014;5.430;2024-01-27T04:45:48;5.55;;;2.28;;
72483;SDS011;74199;52.014;5.430;2024-01-27T04:48:16;6.10;;;2.35;;
72483;SDS011;74199;52.014;5.430;2024-01-27T04:50:43;9.65;;;2.50;;
72483;SDS011;74199;52.014;5.430;2024-01-27T04:53:10;6.95;;;2.42;;
72483;SDS011;74199;52.014;5.430;2024-01-27T04:55:37;8.18;;;2.55;;
72483;SDS011;74199;52.014;5.430;2024-01-27T04:58:04;8.20;;;2.60;;
72483;SDS011;74199;52.014;5.430;2024-01-27T05:00:31;9.48;;;2.47;;
72483;SDS011;74199;52.014;5.430;2024-01-27T05:02:58;6.10;;;2.33;;
72483;SDS011;74199;52.014;5.430;2024-01-27T05:05:29;8.63;;;2.70;;
72483;SDS011;74199;52.014;5.430;2024-01-27T05:08:01;8.43;;;2.47;;
72483;SDS011;74199;52.014;5.430;2024-01-27T05:10:28;9.40;;;3.03;;
72483;SDS011;74199;52.014;5.430;2024-01-27T05:12:55;10.02;;;2.90;;
72483;SDS011;74199;52.014;5.430;2024-01-27T05:15:22;8.07;;;3.00;;
72483;SDS011;74199;52.014;5.430;2024-01-27T05:17:49;9.63;;;2.78;;
72483;SDS011;74199;52.014;5.430;2024-01-27T05:20:17;10.23;;;3.00;;
72483;SDS011;74199;52.014;5.430;2024-01-27T05:22:45;7.85;;;2.80;;
72483;SDS011;74199;52.014;5.430;2024-01-27T05:25:12;8.10;;;2.83;;
72483;SDS011;74199;52.014;5.430;2024-01-27T05:27:39;7.93;;;2.75;;
72483;SDS011;74199;52.014;5.430;2024-01-27T05:30:06;10.32;;;2.90;;
72483;SDS011;74199;52.014;5.430;2024-01-27T05:32:34;8.93;;;2.78;;
72483;SDS011;74199;52.014;5.430;2024-01-27T05:35:01;7.75;;;2.97;;
72483;SDS011;74199;52.014;5.430;2024-01-27T05:37:29;7.07;;;2.60;;
72483;SDS011;74199;52.014;5.430;2024-01-27T05:39:56;10.23;;;3.00;;
72483;SDS011;74199;52.014;5.430;2024-01-27T05:42:23;7.45;;;2.95;;
72483;SDS011;74199;52.014;5.430;2024-01-27T05:44:50;6.40;;;2.60;;
72483;SDS011;74199;52.014;5.430;2024-01-27T05:47:17;6.35;;;2.20;;
72483;SDS011;74199;52.014;5.430;2024-01-27T05:49:44;7.15;;;2.42;;
72483;SDS011;74199;52.014;5.430;2024-01-27T05:52:11;8.73;;;3.00;;
72483;SDS011;74199;52.014;5.430;2024-01-27T05:54:50;8.65;;;2.95;;
72483;SDS011;74199;52.014;5.430;2024-01-27T05:57:18;6.07;;;2.63;;
72483;SDS011;74199;52.014;5.430;2024-01-27T05:59:46;8.80;;;2.90;;
72483;SDS011;74199;52.014;5.430;2024-01-27T06:02:13;6.85;;;2.47;;
72483;SDS011;74199;52.014;5.430;2024-01-27T06:04:40;7.57;;;2.63;;
72483;SDS011;74199;52.014;5.430;2024-01-27T06:07:07;7.72;;;2.63;;
72483;SDS011;74199;52.014;5.430;2024-01-27T06:09:34;7.63;;;2.78;;
72483;SDS011;74199;52.014;5.430;2024-01-27T06:12:04;8.82;;;2.88;;
72483;SDS011;74199;52.014;5.430;2024-01-27T06:14:31;7.63;;;2.60;;
72483;SDS011;74199;52.014;5.430;2024-01-27T06:16:58;8.23;;;3.08;;
72483;SDS011;74199;52.014;5.430;2024-01-27T06:19:26;8.05;;;2.72;;
72483;SDS011;74199;52.014;5.430;2024-01-27T06:21:53;7.85;;;2.97;;
72483;SDS011;74199;52.014;5.430;2024-01-27T06:24:20;7.60;;;2.70;;
72483;SDS011;74199;52.014;5.430;2024-01-27T06:26:47;5.93;;;2.60;;
72483;SDS011;74199;52.014;5.430;2024-01-27T06:29:14;7.05;;;2.88;;
72483;SDS011;74199;52.014;5.430;2024-01-27T06:31:41;8.68;;;3.20;;
72483;SDS011;74199;52.014;5.430;2024-01-27T06:34:08;6.30;;;2.47;;
72483;SDS011;74199;52.014;5.430;2024-01-27T06:36:35;6.10;;;2.55;;
72483;SDS011;74199;52.014;5.430;2024-01-27T06:39:02;9.02;;;2.47;;
72483;SDS011;74199;52.014;5.430;2024-01-27T06:41:29;7.63;;;2.50;;
72483;SDS011;74199;52.014;5.430;2024-01-27T06:43:56;6.63;;;2.90;;
72483;SDS011;74199;52.014;5.430;2024-01-27T06:46:23;7.57;;;2.80;;
72483;SDS011;74199;52.014;5.430;2024-01-27T06:48:51;7.90;;;3.05;;
72483;SDS011;74199;52.014;5.430;2024-01-27T06:51:18;12.15;;;3.00;;
72483;SDS011;74199;52.014;5.430;2024-01-27T06:53:45;6.90;;;2.75;;
72483;SDS011;74199;52.014;5.430;2024-01-27T06:56:14;5.70;;;2.70;;
72483;SDS011;74199;52.014;5.430;2024-01-27T06:58:41;10.82;;;3.70;;
72483;SDS011;74199;52.014;5.430;2024-01-27T07:01:08;11.10;;;4.05;;
72483;SDS011;74199;52.014;5.430;2024-01-27T07:03:35;11.20;;;3.97;;
72483;SDS011;74199;52.014;5.430;2024-01-27T07:06:02;8.25;;;3.35;;
72483;SDS011;74199;52.014;5.430;2024-01-27T07:08:30;9.52;;;3.78;;
72483;SDS011;74199;52.014;5.430;2024-01-27T07:11:03;10.32;;;4.38;;
72483;SDS011;74199;52.014;5.430;2024-01-27T07:13:30;9.95;;;4.53;;
72483;SDS011;74199;52.014;5.430;2024-01-27T07:15:57;11.77;;;4.85;;
72483;SDS011;74199;52.014;5.430;2024-01-27T07:18:24;10.48;;;4.50;;
72483;SDS011;74199;52.014;5.430;2024-01-27T07:20:52;10.30;;;4.47;;
72483;SDS011;74199;52.014;5.430;2024-01-27T07:23:21;8.40;;;4.10;;
72483;SDS011;74199;52.014;5.430;2024-01-27T07:25:48;8.80;;;4.10;;
72483;SDS011;74199;52.014;5.430;2024-01-27T07:28:15;7.07;;;3.92;;
72483;SDS011;74199;52.014;5.430;2024-01-27T07:30:45;10.82;;;4.00;;
72483;SDS011;74199;52.014;5.430;2024-01-27T07:33:12;7.93;;;3.90;;
72483;SDS011;74199;52.014;5.430;2024-01-27T07:35:39;8.63;;;4.10;;
72483;SDS011;74199;52.014;5.430;2024-01-27T07:38:07;10.93;;;4.18;;
72483;SDS011;74199;52.014;5.430;2024-01-27T07:40:34;10.13;;;3.67;;
72483;SDS011;74199;52.014;5.430;2024-01-27T07:43:01;8.32;;;3.85;;
72483;SDS011;74199;52.014;5.430;2024-01-27T07:45:29;8.43;;;3.90;;
72483;SDS011;74199;52.014;5.430;2024-01-27T07:47:56;7.78;;;4.00;;
72483;SDS011;74199;52.014;5.430;2024-01-27T07:50:27;8.57;;;3.50;;
72483;SDS011;74199;52.014;5.430;2024-01-27T07:52:54;8.30;;;3.60;;
72483;SDS011;74199;52.014;5.430;2024-01-27T07:55:21;11.55;;;3.75;;
72483;SDS011;74199;52.014;5.430;2024-01-27T07:57:48;10.93;;;3.90;;
72483;SDS011;74199;52.014;5.430;2024-01-27T08:00:15;11.15;;;4.05;;
72483;SDS011;74199;52.014;5.430;2024-01-27T08:02:43;7.38;;;3.45;;
72483;SDS011;74199;52.014;5.430;2024-01-27T08:05:10;8.43;;;3.80;;
72483;SDS011;74199;52.014;5.430;2024-01-27T08:07:37;9.40;;;3.53;;
72483;SDS011;74199;52.014;5.430;2024-01-27T08:10:04;10.30;;;3.80;;
72483;SDS011;74199;52.014;5.430;2024-01-27T08:12:31;8.10;;;3.67;;
72483;SDS011;74199;52.014;5.430;2024-01-27T08:14:58;11.18;;;3.58;;
72483;SDS011;74199;52.014;5.430;2024-01-27T08:17:25;9.73;;;3.58;;
72483;SDS011;74199;52.014;5.430;2024-01-27T08:19:52;9.23;;;3.28;;
72483;SDS011;74199;52.014;5.430;2024-01-27T08:22:19;9.40;;;3.97;;
72483;SDS011;74199;52.014;5.430;2024-01-27T08:24:46;12.50;;;3.75;;
72483;SDS011;74199;52.014;5.430;2024-01-27T08:27:13;10.38;;;3.22;;
72483;SDS011;74199;52.014;5.430;2024-01-27T08:29:40;6.72;;;3.67;;
72483;SDS011;74199;52.014;5.430;2024-01-27T08:32:07;9.25;;;3.53;;
72483;SDS011;74199;52.014;5.430;2024-01-27T08:34:34;6.57;;;3.55;;
72483;SDS011;74199;52.014;5.430;2024-01-27T08:37:01;9.23;;;3.63;;
72483;SDS011;74199;52.014;5.430;2024-01-27T08:39:28;11.15;;;3.58;;
72483;SDS011;74199;52.014;5.430;2024-01-27T08:41:56;8.88;;;3.70;;
72483;SDS011;74199;52.014;5.430;2024-01-27T08:44:23;10.27;;;3.65;;
72483;SDS011;74199;52.014;5.430;2024-01-27T08:46:49;8.68;;;4.03;;
72483;SDS011;74199;52.014;5.430;2024-01-27T08:49:16;8.27;;;3.50;;
72483;SDS011;74199;52.014;5.430;2024-01-27T08:51:43;9.15;;;3.88;;
72483;SDS011;74199;52.014;5.430;2024-01-27T08:54:10;8.43;;;3.92;;
72483;SDS011;74199;52.014;5.430;2024-01-27T08:56:40;7.70;;;4.10;;
72483;SDS011;74199;52.014;5.430;2024-01-27T08:59:07;11.00;;;3.95;;
72483;SDS011;74199;52.014;5.430;2024-01-27T09:01:34;9.27;;;3.72;;
72483;SDS011;74199;52.014;5.430;2024-01-27T09:04:01;7.68;;;3.85;;
72483;SDS011;74199;52.014;5.430;2024-01-27T09:06:28;10.52;;;3.72;;
72483;SDS011;74199;52.014;5.430;2024-01-27T09:08:57;8.18;;;3.78;;
72483;SDS011;74199;52.014;5.430;2024-01-27T09:11:24;8.63;;;3.75;;
72483;SDS011;74199;52.014;5.430;2024-01-27T09:13:54;11.65;;;4.03;;
72483;SDS011;74199;52.014;5.430;2024-01-27T09:16:22;9.27;;;4.13;;
72483;SDS011;74199;52.014;5.430;2024-01-27T09:18:49;11.10;;;4.25;;
72483;SDS011;74199;52.014;5.430;2024-01-27T09:21:17;12.85;;;4.05;;
72483;SDS011;74199;52.014;5.430;2024-01-27T09:23:47;10.00;;;4.03;;
72483;SDS011;74199;52.014;5.430;2024-01-27T09:26:13;7.57;;;3.83;;
72483;SDS011;74199;52.014;5.430;2024-01-27T09:28:41;12.70;;;4.00;;
72483;SDS011;74199;52.014;5.430;2024-01-27T09:31:10;9.02;;;3.40;;
72483;SDS011;74199;52.014;5.430;2024-01-27T09:33:37;10.85;;;3.90;;
72483;SDS011;74199;52.014;5.430;2024-01-27T09:36:04;10.95;;;3.53;;
72483;SDS011;74199;52.014;5.430;2024-01-27T09:38:31;9.95;;;3.95;;
72483;SDS011;74199;52.014;5.430;2024-01-27T09:40:58;9.98;;;4.00;;
72483;SDS011;74199;52.014;5.430;2024-01-27T09:43:25;11.00;;;3.80;;
72483;SDS011;74199;52.014;5.430;2024-01-27T09:45:54;11.07;;;4.03;;
72483;SDS011;74199;52.014;5.430;2024-01-27T09:48:25;9.15;;;3.75;;
72483;SDS011;74199;52.014;5.430;2024-01-27T09:50:53;9.98;;;3.88;;
72483;SDS011;74199;52.014;5.430;2024-01-27T09:53:22;9.75;;;4.30;;
72483;SDS011;74199;52.014;5.430;2024-01-27T09:55:49;9.90;;;4.10;;
72483;SDS011;74199;52.014;5.430;2024-01-27T09:58:17;10.82;;;3.80;;
72483;SDS011;74199;52.014;5.430;2024-01-27T10:00:44;8.82;;;3.60;;
72483;SDS011;74199;52.014;5.430;2024-01-27T10:03:12;8.52;;;3.33;;
72483;SDS011;74199;52.014;5.430;2024-01-27T10:05:39;9.23;;;3.75;;
72483;SDS011;74199;52.014;5.430;2024-01-27T10:08:08;9.52;;;3.60;;
72483;SDS011;74199;52.014;5.430;2024-01-27T10:10:35;10.45;;;4.15;;
72483;SDS011;74199;52.014;5.430;2024-01-27T10:13:02;8.43;;;3.90;;
72483;SDS011;74199;52.014;5.430;2024-01-27T10:15:30;9.82;;;3.97;;
72483;SDS011;74199;52.014;5.430;2024-01-27T10:18:07;10.77;;;4.50;;
72483;SDS011;74199;52.014;5.430;2024-01-27T10:20:35;11.73;;;4.15;;
72483;SDS011;74199;52.014;5.430;2024-01-27T10:23:11;8.45;;;4.03;;
72483;SDS011;74199;52.014;5.430;2024-01-27T10:25:39;8.27;;;3.67;;
72483;SDS011;74199;52.014;5.430;2024-01-27T10:28:07;7.85;;;3.95;;
72483;SDS011;74199;52.014;5.430;2024-01-27T10:30:35;10.20;;;4.07;;
72483;SDS011;74199;52.014;5.430;2024-01-27T10:33:02;9.23;;;3.85;;
72483;SDS011;74199;52.014;5.430;2024-01-27T10:35:30;8.95;;;4.28;;
72483;SDS011;74199;52.014;5.430;2024-01-27T10:37:57;9.63;;;4.50;;
72483;SDS011;74199;52.014;5.430;2024-01-27T10:40:25;11.07;;;4.45;;
72483;SDS011;74199;52.014;5.430;2024-01-27T10:43:02;12.70;;;4.55;;
72483;SDS011;74199;52.014;5.430;2024-01-27T10:45:34;11.40;;;4.20;;
72483;SDS011;74199;52.014;5.430;2024-01-27T10:48:03;9.70;;;4.05;;
72483;SDS011;74199;52.014;5.430;2024-01-27T10:50:39;10.70;;;4.13;;
72483;SDS011;74199;52.014;5.430;2024-01-27T10:53:18;10.65;;;4.20;;
72483;SDS011;74199;52.014;5.430;2024-01-27T10:55:53;11.65;;;3.60;;
72483;SDS011;74199;52.014;5.430;2024-01-27T10:58:23;11.93;;;4.13;;
72483;SDS011;74199;52.014;5.430;2024-01-27T11:00:51;8.15;;;3.85;;
72483;SDS011;74199;52.014;5.430;2024-01-27T11:03:20;8.95;;;3.83;;
72483;SDS011;74199;52.014;5.430;2024-01-27T11:05:48;11.23;;;3.92;;
72483;SDS011;74199;52.014;5.430;2024-01-27T11:08:18;13.63;;;3.90;;
72483;SDS011;74199;52.014;5.430;2024-01-27T11:10:45;10.43;;;3.47;;
72483;SDS011;74199;52.014;5.430;2024-01-27T11:13:12;8.35;;;3.47;;
72483;SDS011;74199;52.014;5.430;2024-01-27T11:15:50;11.18;;;3.78;;
72483;SDS011;74199;52.014;5.430;2024-01-27T11:18:18;9.70;;;3.90;;
72483;SDS011;74199;52.014;5.430;2024-01-27T11:20:46;9.25;;;3.90;;
72483;SDS011;74199;52.014;5.430;2024-01-27T11:23:13;8.07;;;3.30;;
72483;SDS011;74199;52.014;5.430;2024-01-27T11:25:40;10.63;;;3.88;;
72483;SDS011;74199;52.014;5.430;2024-01-27T11:28:16;8.63;;;3.45;;
72483;SDS011;74199;52.014;5.430;2024-01-27T11:30:46;12.88;;;3.80;;
72483;SDS011;74199;52.014;5.430;2024-01-27T11:33:14;7.28;;;3.22;;
72483;SDS011;74199;52.014;5.430;2024-01-27T11:35:42;6.57;;;3.38;;
72483;SDS011;74199;52.014;5.430;2024-01-27T11:38:09;11.20;;;3.65;;
72483;SDS011;74199;52.014;5.430;2024-01-27T11:40:48;9.15;;;4.00;;
72483;SDS011;74199;52.014;5.430;2024-01-27T11:43:16;11.70;;;3.70;;
72483;SDS011;74199;52.014;5.430;2024-01-27T11:45:43;10.80;;;3.50;;
72483;SDS011;74199;52.014;5.430;2024-01-27T11:48:10;11.57;;;3.75;;
72483;SDS011;74199;52.014;5.430;2024-01-27T11:50:38;16.52;;;4.13;;
72483;SDS011;74199;52.014;5.430;2024-01-27T11:53:05;11.75;;;3.78;;
72483;SDS011;74199;52.014;5.430;2024-01-27T11:55:36;9.52;;;3.67;;
72483;SDS011;74199;52.014;5.430;2024-01-27T11:58:03;11.88;;;3.90;;
72483;SDS011;74199;52.014;5.430;2024-01-27T12:00:31;10.98;;;3.28;;
72483;SDS011;74199;52.014;5.430;2024-01-27T12:02:58;9.07;;;3.53;;
72483;SDS011;74199;52.014;5.430;2024-01-27T12:05:25;10.90;;;3.20;;
72483;SDS011;74199;52.014;5.430;2024-01-27T12:07:52;11.23;;;4.03;;
72483;SDS011;74199;52.014;5.430;2024-01-27T12:10:19;9.98;;;3.65;;
72483;SDS011;74199;52.014;5.430;2024-01-27T12:12:46;11.38;;;3.50;;
72483;SDS011;74199;52.014;5.430;2024-01-27T12:15:13;10.82;;;3.80;;
72483;SDS011;74199;52.014;5.430;2024-01-27T12:17:41;10.07;;;3.30;;
72483;SDS011;74199;52.014;5.430;2024-01-27T12:20:14;10.15;;;3.63;;
72483;SDS011;74199;52.014;5.430;2024-01-27T12:22:42;12.10;;;3.70;;
72483;SDS011;74199;52.014;5.430;2024-01-27T12:25:10;11.07;;;3.50;;
72483;SDS011;74199;52.014;5.430;2024-01-27T12:27:40;14.38;;;3.83;;
72483;SDS011;74199;52.014;5.430;2024-01-27T12:30:08;11.35;;;3.83;;
72483;SDS011;74199;52.014;5.430;2024-01-27T12:32:36;8.55;;;3.58;;
72483;SDS011;74199;52.014;5.430;2024-01-27T12:35:06;8.85;;;3.33;;
72483;SDS011;74199;52.014;5.430;2024-01-27T12:37:35;11.27;;;3.80;;
72483;SDS011;74199;52.014;5.430;2024-01-27T12:40:02;8.45;;;3.20;;
72483;SDS011;74199;52.014;5.430;2024-01-27T12:42:29;12.45;;;3.60;;
72483;SDS011;74199;52.014;5.430;2024-01-27T12:44:56;9.02;;;3.42;;
72483;SDS011;74199;52.014;5.430;2024-01-27T12:47:23;10.73;;;3.72;;
72483;SDS011;74199;52.014;5.430;2024-01-27T12:49:50;9.13;;;3.42;;
72483;SDS011;74199;52.014;5.430;2024-01-27T12:52:18;11.10;;;3.80;;
72483;SDS011;74199;52.014;5.430;2024-01-27T12:54:44;10.25;;;3.55;;
72483;SDS011;74199;52.014;5.430;2024-01-27T12:57:12;12.68;;;3.65;;
72483;SDS011;74199;52.014;5.430;2024-01-27T12:59:39;14.07;;;3.88;;
72483;SDS011;74199;52.014;5.430;2024-01-27T13:02:06;12.13;;;3.63;;
72483;SDS011;74199;52.014;5.430;2024-01-27T13:04:34;9.85;;;3.45;;
72483;SDS011;74199;52.014;5.430;2024-01-27T13:07:01;9.02;;;3.28;;
72483;SDS011;74199;52.014;5.430;2024-01-27T13:09:28;13.40;;;3.60;;
72483;SDS011;74199;52.014;5.430;2024-01-27T13:11:55;9.18;;;3.22;;
72483;SDS011;74199;52.014;5.430;2024-01-27T13:14:22;8.93;;;3.28;;
72483;SDS011;74199;52.014;5.430;2024-01-27T13:16:49;11.18;;;3.75;;
72483;SDS011;74199;52.014;5.430;2024-01-27T13:19:16;14.02;;;4.45;;
72483;SDS011;74199;52.014;5.430;2024-01-27T13:21:43;13.10;;;3.38;;
72483;SDS011;74199;52.014;5.430;2024-01-27T13:24:10;15.88;;;3.78;;
72483;SDS011;74199;52.014;5.430;2024-01-27T13:26:37;10.55;;;3.78;;
72483;SDS011;74199;52.014;5.430;2024-01-27T13:29:04;9.95;;;3.95;;
72483;SDS011;74199;52.014;5.430;2024-01-27T13:31:33;9.32;;;3.55;;
72483;SDS011;74199;52.014;5.430;2024-01-27T13:34:00;9.98;;;3.45;;
72483;SDS011;74199;52.014;5.430;2024-01-27T13:36:28;7.68;;;3.25;;
72483;SDS011;74199;52.014;5.430;2024-01-27T13:38:55;10.32;;;3.80;;
72483;SDS011;74199;52.014;5.430;2024-01-27T13:41:24;12.70;;;3.17;;
72483;SDS011;74199;52.014;5.430;2024-01-27T13:43:51;15.25;;;3.58;;
72483;SDS011;74199;52.014;5.430;2024-01-27T13:46:18;11.60;;;3.40;;
72483;SDS011;74199;52.014;5.430;2024-01-27T13:48:45;10.82;;;3.55;;
72483;SDS011;74199;52.014;5.430;2024-01-27T13:51:13;13.50;;;3.60;;
72483;SDS011;74199;52.014;5.430;2024-01-27T13:53:40;7.00;;;3.00;;
72483;SDS011;74199;52.014;5.430;2024-01-27T13:56:13;14.77;;;3.70;;
72483;SDS011;74199;52.014;5.430;2024-01-27T13:58:40;11.95;;;3.47;;
72483;SDS011;74199;52.014;5.430;2024-01-27T14:01:08;12.63;;;3.83;;
72483;SDS011;74199;52.014;5.430;2024-01-27T14:03:35;9.38;;;2.97;;
72483;SDS011;74199;52.014;5.430;2024-01-27T14:06:04;11.98;;;3.30;;
72483;SDS011;74199;52.014;5.430;2024-01-27T14:08:32;10.63;;;3.40;;
72483;SDS011;74199;52.014;5.430;2024-01-27T14:10:59;8.50;;;2.97;;
72483;SDS011;74199;52.014;5.430;2024-01-27T14:13:26;11.82;;;3.40;;
72483;SDS011;74199;52.014;5.430;2024-01-27T14:15:53;9.38;;;2.90;;
72483;SDS011;74199;52.014;5.430;2024-01-27T14:18:20;10.13;;;3.03;;
72483;SDS011;74199;52.014;5.430;2024-01-27T14:20:49;10.68;;;3.53;;
72483;SDS011;74199;52.014;5.430;2024-01-27T14:23:17;9.55;;;3.13;;
72483;SDS011;74199;52.014;5.430;2024-01-27T14:25:44;8.95;;;3.20;;
72483;SDS011;74199;52.014;5.430;2024-01-27T14:28:13;11.35;;;3.10;;
72483;SDS011;74199;52.014;5.430;2024-01-27T14:30:41;11.48;;;3.08;;
72483;SDS011;74199;52.014;5.430;2024-01-27T14:33:10;9.00;;;3.30;;
72483;SDS011;74199;52.014;5.430;2024-01-27T14:35:38;10.38;;;2.97;;
72483;SDS011;74199;52.014;5.430;2024-01-27T14:38:05;8.98;;;3.03;;
72483;SDS011;74199;52.014;5.430;2024-01-27T14:40:35;8.80;;;2.97;;
72483;SDS011;74199;52.014;5.430;2024-01-27T14:43:03;9.23;;;3.15;;
72483;SDS011;74199;52.014;5.430;2024-01-27T14:45:35;7.72;;;2.50;;